BIENTÔT MET'MAP
version 2.0 !

Prévue avant fin octobre,
la nouvelle version sera
plus belle, plus complète
et hébergée sur un serveur
3 fois plus puissant...
et toujours gratuite !


Pas compatible ?
Essayez la version Mobile !

SE CONNECTER : | S'inscrire | Disclaimer | Découvrir Orbifly |
Code OACI :

TAF - LGKC Kithira - 27 May 2020 05:35 UTC - Data Source NOAA   


- Altitude de l'aérodrome : 1045 ft
- Code IATA : KIT
- Pas de NOTAMs connus.


LGKC - Kithira

Dernier METAR connu : 2015/08/11 07:50 LGKC 110750Z /////KT CAVOK 29/20 Q1014
TAF TAF LGKC
Valide du 27 à 03h jusqu'au 27 à 12h UTC


270200Z 2703/2712 04012KT 9999 FEW016 SCT030
TEMPO 2703/2705 31010G20KT
PROB40
TEMPO 2703/2712 5000 RA FEW018TCU BKN025
PROB30 2703/2712 4000 TSRA SCT015 FEW018CB BKN020

Source NOAA


MET'MAP, la Météo Aéronautique d'un coup d'oeil ! - Copyright ORBIFLY Décembre 2007

Développement & Programmation : Alexandra Zaïnal
Co-Développement : Marc-Olivier Méhu
Soutien technique & logistique : Manuel Goepfert
Conception & Financement : Baudouin d'Aumeries